Portada
METAR-TAF:

METAR-TAF

Aeroports :

Rajkot, Índia

latitud: 22-18N, longitud: 070-47E, altitud: 134 m

Observació

L'informe es va fer fa 5 hores i 21 minuts, a les 15:00 UTC
Vent 4 kt del Est
Temperatura 30°C
Humitat 52%
Pressió 1012 hPa
Visibilitat: 6000 m

METAR: VARK 161500Z 09004KT 6000 NSC 30/19 Q1012 NOSIG

Hora: 01:51 (20:21 UTC)

Pronòstic

L'informe es va fer fa 3 hores i 21 minuts, a les 17:00 UTC
Pronòstic vàlid del 16 a les 18 UTC al 17 a les 03 UTC
Vent 4 kt amb direcció variable
Visibilitat: 6000 m
Evolucionant progressivament
l' 17 a les 01 UTC al 17 a les 03 UTC
Visibilitat: 4000 m
calitja

TAF: VARK 161700Z 1618/1703 VRB04KT 6000 NSC BECMG 1701/1703 4000 HZ

Observacions i pronòstics meteorològics de més de 4000 aeroports (METAR i TAF).

Les estacions disponibles són els punts grocs i vermells al mapa.

Posi el ratolí al punt desitjat per veure el nom de l'estació.

Feu clic per veure les observacions i els pronòstics meteorològics.

Per canviar el mapa: feu clic els botons verds amb una creu de color negre per apropar; al botó verd amb un guió per allunyar la imatge; o en les fletxes verdes per a mapes adjacents.


METAR-TAF: